sensor_id;sensor_type;location;lat;lon;timestamp;P1;durP1;ratioP1;P2;durP2;ratioP2
1679;SDS011;838;51.794;12.258;2024-02-28T00:01:24;23.30;;;13.87;;
1679;SDS011;838;51.794;12.258;2024-02-28T00:03:50;20.23;;;13.37;;
1679;SDS011;838;51.794;12.258;2024-02-28T00:06:16;22.10;;;13.87;;
1679;SDS011;838;51.794;12.258;2024-02-28T00:08:42;21.50;;;12.57;;
1679;SDS011;838;51.794;12.258;2024-02-28T00:11:08;23.27;;;14.73;;
1679;SDS011;838;51.794;12.258;2024-02-28T00:13:33;21.00;;;13.90;;
1679;SDS011;838;51.794;12.258;2024-02-28T00:15:59;25.53;;;14.53;;
1679;SDS011;838;51.794;12.258;2024-02-28T00:18:25;23.37;;;14.97;;
1679;SDS011;838;51.794;12.258;2024-02-28T00:20:50;21.73;;;12.73;;
1679;SDS011;838;51.794;12.258;2024-02-28T00:23:16;19.97;;;13.57;;
1679;SDS011;838;51.794;12.258;2024-02-28T00:25:42;25.07;;;13.80;;
1679;SDS011;838;51.794;12.258;2024-02-28T00:28:07;25.73;;;14.13;;
1679;SDS011;838;51.794;12.258;2024-02-28T00:30:33;20.73;;;13.10;;
1679;SDS011;838;51.794;12.258;2024-02-28T00:32:59;23.57;;;14.57;;
1679;SDS011;838;51.794;12.258;2024-02-28T00:35:25;25.27;;;14.80;;
1679;SDS011;838;51.794;12.258;2024-02-28T00:37:51;26.07;;;14.30;;
1679;SDS011;838;51.794;12.258;2024-02-28T00:40:17;25.47;;;14.57;;
1679;SDS011;838;51.794;12.258;2024-02-28T00:42:42;28.27;;;14.80;;
1679;SDS011;838;51.794;12.258;2024-02-28T00:45:08;26.07;;;14.80;;
1679;SDS011;838;51.794;12.258;2024-02-28T00:47:35;25.00;;;14.03;;
1679;SDS011;838;51.794;12.258;2024-02-28T00:50:01;25.70;;;15.70;;
1679;SDS011;838;51.794;12.258;2024-02-28T00:52:29;21.83;;;14.20;;
1679;SDS011;838;51.794;12.258;2024-02-28T00:54:57;18.60;;;13.40;;
1679;SDS011;838;51.794;12.258;2024-02-28T00:57:22;21.30;;;13.87;;
1679;SDS011;838;51.794;12.258;2024-02-28T00:59:49;20.53;;;14.07;;
1679;SDS011;838;51.794;12.258;2024-02-28T01:02:14;23.30;;;13.80;;
1679;SDS011;838;51.794;12.258;2024-02-28T01:04:41;22.60;;;13.87;;
1679;SDS011;838;51.794;12.258;2024-02-28T01:07:06;22.13;;;13.13;;
1679;SDS011;838;51.794;12.258;2024-02-28T01:09:32;21.50;;;12.93;;
1679;SDS011;838;51.794;12.258;2024-02-28T01:11:58;22.70;;;13.43;;
1679;SDS011;838;51.794;12.258;2024-02-28T01:14:24;24.80;;;14.73;;
1679;SDS011;838;51.794;12.258;2024-02-28T01:16:50;23.07;;;13.10;;
1679;SDS011;838;51.794;12.258;2024-02-28T01:19:15;21.43;;;14.00;;
1679;SDS011;838;51.794;12.258;2024-02-28T01:21:41;23.60;;;12.77;;
1679;SDS011;838;51.794;12.258;2024-02-28T01:24:07;22.93;;;13.00;;
1679;SDS011;838;51.794;12.258;2024-02-28T01:26:33;19.90;;;12.67;;
1679;SDS011;838;51.794;12.258;2024-02-28T01:28:59;19.90;;;12.70;;
1679;SDS011;838;51.794;12.258;2024-02-28T01:31:24;24.23;;;14.30;;
1679;SDS011;838;51.794;12.258;2024-02-28T01:33:50;23.30;;;14.63;;
1679;SDS011;838;51.794;12.258;2024-02-28T01:36:16;25.97;;;14.90;;
1679;SDS011;838;51.794;12.258;2024-02-28T01:38:42;20.13;;;13.27;;
1679;SDS011;838;51.794;12.258;2024-02-28T01:41:07;23.07;;;14.70;;
1679;SDS011;838;51.794;12.258;2024-02-28T01:43:33;20.33;;;13.70;;
1679;SDS011;838;51.794;12.258;2024-02-28T01:46:03;22.07;;;14.43;;
1679;SDS011;838;51.794;12.258;2024-02-28T01:48:36;21.37;;;13.77;;
1679;SDS011;838;51.794;12.258;2024-02-28T01:51:02;23.00;;;13.40;;
1679;SDS011;838;51.794;12.258;2024-02-28T01:53:28;19.77;;;12.80;;
1679;SDS011;838;51.794;12.258;2024-02-28T01:55:54;21.87;;;13.17;;
1679;SDS011;838;51.794;12.258;2024-02-28T01:58:20;20.97;;;13.77;;
1679;SDS011;838;51.794;12.258;2024-02-28T02:00:47;22.93;;;12.63;;
1679;SDS011;838;51.794;12.258;2024-02-28T02:03:13;24.20;;;15.60;;
1679;SDS011;838;51.794;12.258;2024-02-28T02:05:41;23.90;;;14.03;;
1679;SDS011;838;51.794;12.258;2024-02-28T02:08:06;20.97;;;13.60;;
1679;SDS011;838;51.794;12.258;2024-02-28T02:10:32;23.87;;;13.37;;
1679;SDS011;838;51.794;12.258;2024-02-28T02:13:04;24.33;;;13.40;;
1679;SDS011;838;51.794;12.258;2024-02-28T02:15:31;22.67;;;13.50;;
1679;SDS011;838;51.794;12.258;2024-02-28T02:17:56;20.50;;;14.27;;
1679;SDS011;838;51.794;12.258;2024-02-28T02:20:22;21.70;;;13.67;;
1679;SDS011;838;51.794;12.258;2024-02-28T02:22:50;23.40;;;12.67;;
1679;SDS011;838;51.794;12.258;2024-02-28T02:25:16;20.93;;;13.40;;
1679;SDS011;838;51.794;12.258;2024-02-28T02:27:42;19.97;;;14.00;;
1679;SDS011;838;51.794;12.258;2024-02-28T02:30:07;20.20;;;12.63;;
1679;SDS011;838;51.794;12.258;2024-02-28T02:32:33;21.13;;;13.50;;
1679;SDS011;838;51.794;12.258;2024-02-28T02:34:59;21.27;;;13.70;;
1679;SDS011;838;51.794;12.258;2024-02-28T02:37:25;22.43;;;14.80;;
1679;SDS011;838;51.794;12.258;2024-02-28T02:39:51;22.37;;;12.53;;
1679;SDS011;838;51.794;12.258;2024-02-28T02:42:18;21.57;;;12.57;;
1679;SDS011;838;51.794;12.258;2024-02-28T02:44:44;22.33;;;13.27;;
1679;SDS011;838;51.794;12.258;2024-02-28T02:47:09;18.07;;;13.10;;
1679;SDS011;838;51.794;12.258;2024-02-28T02:49:35;19.57;;;12.00;;
1679;SDS011;838;51.794;12.258;2024-02-28T02:52:01;18.30;;;13.90;;
1679;SDS011;838;51.794;12.258;2024-02-28T02:54:26;23.13;;;13.87;;
1679;SDS011;838;51.794;12.258;2024-02-28T02:56:52;21.93;;;14.53;;
1679;SDS011;838;51.794;12.258;2024-02-28T02:59:18;20.33;;;13.33;;
1679;SDS011;838;51.794;12.258;2024-02-28T03:01:46;22.27;;;14.90;;
1679;SDS011;838;51.794;12.258;2024-02-28T03:04:13;23.07;;;14.10;;
1679;SDS011;838;51.794;12.258;2024-02-28T03:06:42;21.23;;;13.30;;
1679;SDS011;838;51.794;12.258;2024-02-28T03:09:08;18.93;;;11.90;;
1679;SDS011;838;51.794;12.258;2024-02-28T03:11:33;21.90;;;13.67;;
1679;SDS011;838;51.794;12.258;2024-02-28T03:14:00;21.00;;;12.87;;
1679;SDS011;838;51.794;12.258;2024-02-28T03:16:26;27.60;;;14.60;;
1679;SDS011;838;51.794;12.258;2024-02-28T03:18:53;24.87;;;14.27;;
1679;SDS011;838;51.794;12.258;2024-02-28T03:21:19;22.97;;;13.70;;
1679;SDS011;838;51.794;12.258;2024-02-28T03:23:46;23.93;;;15.00;;
1679;SDS011;838;51.794;12.258;2024-02-28T03:26:14;22.90;;;13.83;;
1679;SDS011;838;51.794;12.258;2024-02-28T03:28:40;21.87;;;12.23;;
1679;SDS011;838;51.794;12.258;2024-02-28T03:31:05;19.17;;;11.30;;
1679;SDS011;838;51.794;12.258;2024-02-28T03:33:31;22.47;;;14.20;;
1679;SDS011;838;51.794;12.258;2024-02-28T03:35:58;23.90;;;13.90;;
1679;SDS011;838;51.794;12.258;2024-02-28T03:38:23;22.00;;;12.87;;
1679;SDS011;838;51.794;12.258;2024-02-28T03:40:49;18.40;;;12.77;;
1679;SDS011;838;51.794;12.258;2024-02-28T03:43:15;20.07;;;11.63;;
1679;SDS011;838;51.794;12.258;2024-02-28T03:45:40;21.53;;;13.03;;
1679;SDS011;838;51.794;12.258;2024-02-28T03:48:06;22.53;;;12.50;;
1679;SDS011;838;51.794;12.258;2024-02-28T03:50:32;18.10;;;12.33;;
1679;SDS011;838;51.794;12.258;2024-02-28T03:52:58;20.47;;;12.53;;
1679;SDS011;838;51.794;12.258;2024-02-28T03:55:24;19.23;;;13.10;;
1679;SDS011;838;51.794;12.258;2024-02-28T03:57:49;22.23;;;13.23;;
1679;SDS011;838;51.794;12.258;2024-02-28T04:00:16;18.97;;;11.43;;
1679;SDS011;838;51.794;12.258;2024-02-28T04:02:43;19.80;;;11.97;;
1679;SDS011;838;51.794;12.258;2024-02-28T04:05:09;20.90;;;12.33;;
1679;SDS011;838;51.794;12.258;2024-02-28T04:07:34;21.57;;;12.90;;
1679;SDS011;838;51.794;12.258;2024-02-28T04:10:00;18.23;;;12.20;;
1679;SDS011;838;51.794;12.258;2024-02-28T04:12:26;17.67;;;12.10;;
1679;SDS011;838;51.794;12.258;2024-02-28T04:14:52;20.77;;;13.13;;
1679;SDS011;838;51.794;12.258;2024-02-28T04:17:17;18.27;;;12.10;;
1679;SDS011;838;51.794;12.258;2024-02-28T04:19:43;19.83;;;12.40;;
1679;SDS011;838;51.794;12.258;2024-02-28T04:22:09;26.93;;;14.23;;
1679;SDS011;838;51.794;12.258;2024-02-28T04:24:34;23.67;;;15.10;;
1679;SDS011;838;51.794;12.258;2024-02-28T04:27:00;23.90;;;13.83;;
1679;SDS011;838;51.794;12.258;2024-02-28T04:29:28;22.97;;;13.20;;
1679;SDS011;838;51.794;12.258;2024-02-28T04:31:54;22.13;;;13.00;;
1679;SDS011;838;51.794;12.258;2024-02-28T04:34:19;19.67;;;12.33;;
1679;SDS011;838;51.794;12.258;2024-02-28T04:36:45;21.77;;;12.93;;
1679;SDS011;838;51.794;12.258;2024-02-28T04:39:11;21.37;;;13.40;;
1679;SDS011;838;51.794;12.258;2024-02-28T04:41:36;19.77;;;12.50;;
1679;SDS011;838;51.794;12.258;2024-02-28T04:44:02;18.00;;;12.13;;
1679;SDS011;838;51.794;12.258;2024-02-28T04:46:28;17.77;;;12.23;;
1679;SDS011;838;51.794;12.258;2024-02-28T04:48:54;22.83;;;12.43;;
1679;SDS011;838;51.794;12.258;2024-02-28T04:51:19;18.87;;;12.17;;
1679;SDS011;838;51.794;12.258;2024-02-28T04:53:45;19.47;;;12.37;;
1679;SDS011;838;51.794;12.258;2024-02-28T04:56:11;18.63;;;11.23;;
1679;SDS011;838;51.794;12.258;2024-02-28T04:58:37;18.90;;;11.90;;
1679;SDS011;838;51.794;12.258;2024-02-28T05:01:03;18.00;;;12.03;;
1679;SDS011;838;51.794;12.258;2024-02-28T05:03:28;20.63;;;12.17;;
1679;SDS011;838;51.794;12.258;2024-02-28T05:05:54;18.10;;;11.77;;
1679;SDS011;838;51.794;12.258;2024-02-28T05:08:20;19.07;;;11.47;;
1679;SDS011;838;51.794;12.258;2024-02-28T05:10:46;20.20;;;12.80;;
1679;SDS011;838;51.794;12.258;2024-02-28T05:13:12;17.40;;;11.80;;
1679;SDS011;838;51.794;12.258;2024-02-28T05:15:38;16.73;;;11.50;;
1679;SDS011;838;51.794;12.258;2024-02-28T05:18:03;18.17;;;11.50;;
1679;SDS011;838;51.794;12.258;2024-02-28T05:20:29;18.50;;;11.73;;
1679;SDS011;838;51.794;12.258;2024-02-28T05:22:55;20.10;;;11.40;;
1679;SDS011;838;51.794;12.258;2024-02-28T05:25:21;17.97;;;11.40;;
1679;SDS011;838;51.794;12.258;2024-02-28T05:27:47;20.90;;;13.03;;
1679;SDS011;838;51.794;12.258;2024-02-28T05:30:13;22.03;;;12.80;;
1679;SDS011;838;51.794;12.258;2024-02-28T05:32:38;22.40;;;13.83;;
1679;SDS011;838;51.794;12.258;2024-02-28T05:35:04;21.70;;;13.37;;
1679;SDS011;838;51.794;12.258;2024-02-28T05:37:30;22.50;;;15.10;;
1679;SDS011;838;51.794;12.258;2024-02-28T05:39:56;17.70;;;11.73;;
1679;SDS011;838;51.794;12.258;2024-02-28T05:42:22;23.87;;;13.63;;
1679;SDS011;838;51.794;12.258;2024-02-28T05:44:48;22.80;;;13.80;;
1679;SDS011;838;51.794;12.258;2024-02-28T05:47:14;20.57;;;12.30;;
1679;SDS011;838;51.794;12.258;2024-02-28T05:49:40;16.60;;;12.43;;
1679;SDS011;838;51.794;12.258;2024-02-28T05:52:05;19.50;;;12.50;;
1679;SDS011;838;51.794;12.258;2024-02-28T05:54:31;23.67;;;13.70;;
1679;SDS011;838;51.794;12.258;2024-02-28T05:56:59;20.63;;;12.90;;
1679;SDS011;838;51.794;12.258;2024-02-28T05:59:25;19.50;;;12.90;;
1679;SDS011;838;51.794;12.258;2024-02-28T06:01:51;28.00;;;13.57;;
1679;SDS011;838;51.794;12.258;2024-02-28T06:04:17;19.20;;;12.67;;
1679;SDS011;838;51.794;12.258;2024-02-28T06:06:43;22.53;;;12.53;;
1679;SDS011;838;51.794;12.258;2024-02-28T06:09:08;20.30;;;12.33;;
1679;SDS011;838;51.794;12.258;2024-02-28T06:11:34;20.27;;;13.37;;
1679;SDS011;838;51.794;12.258;2024-02-28T06:14:00;19.40;;;13.63;;
1679;SDS011;838;51.794;12.258;2024-02-28T06:16:27;18.07;;;11.90;;
1679;SDS011;838;51.794;12.258;2024-02-28T06:18:53;20.90;;;13.50;;
1679;SDS011;838;51.794;12.258;2024-02-28T06:21:21;20.30;;;12.07;;
1679;SDS011;838;51.794;12.258;2024-02-28T06:23:47;22.20;;;13.30;;
1679;SDS011;838;51.794;12.258;2024-02-28T06:26:13;24.73;;;16.40;;
1679;SDS011;838;51.794;12.258;2024-02-28T06:28:43;19.00;;;13.13;;
1679;SDS011;838;51.794;12.258;2024-02-28T06:31:14;25.40;;;14.23;;
1679;SDS011;838;51.794;12.258;2024-02-28T06:33:41;22.90;;;13.50;;
1679;SDS011;838;51.794;12.258;2024-02-28T06:36:07;21.43;;;13.70;;
1679;SDS011;838;51.794;12.258;2024-02-28T06:38:33;19.47;;;12.47;;
1679;SDS011;838;51.794;12.258;2024-02-28T06:41:00;20.33;;;12.10;;
1679;SDS011;838;51.794;12.258;2024-02-28T06:43:29;20.10;;;14.17;;
1679;SDS011;838;51.794;12.258;2024-02-28T06:45:58;18.10;;;11.40;;
1679;SDS011;838;51.794;12.258;2024-02-28T06:48:23;19.03;;;12.60;;
1679;SDS011;838;51.794;12.258;2024-02-28T06:50:49;14.60;;;10.67;;
1679;SDS011;838;51.794;12.258;2024-02-28T06:53:15;20.30;;;13.07;;
1679;SDS011;838;51.794;12.258;2024-02-28T06:55:42;20.50;;;12.93;;
1679;SDS011;838;51.794;12.258;2024-02-28T06:58:09;17.27;;;12.10;;
1679;SDS011;838;51.794;12.258;2024-02-28T07:00:35;18.20;;;11.60;;
1679;SDS011;838;51.794;12.258;2024-02-28T07:03:00;17.53;;;12.87;;
1679;SDS011;838;51.794;12.258;2024-02-28T07:05:26;14.53;;;9.50;;
1679;SDS011;838;51.794;12.258;2024-02-28T07:07:52;18.63;;;11.57;;
1679;SDS011;838;51.794;12.258;2024-02-28T07:10:18;15.50;;;11.20;;
1679;SDS011;838;51.794;12.258;2024-02-28T07:12:44;18.77;;;11.87;;
1679;SDS011;838;51.794;12.258;2024-02-28T07:15:10;19.43;;;11.80;;
1679;SDS011;838;51.794;12.258;2024-02-28T07:17:35;18.03;;;10.50;;
1679;SDS011;838;51.794;12.258;2024-02-28T07:20:01;17.93;;;11.07;;
1679;SDS011;838;51.794;12.258;2024-02-28T07:22:27;15.90;;;10.40;;
1679;SDS011;838;51.794;12.258;2024-02-28T07:24:53;16.17;;;11.50;;
1679;SDS011;838;51.794;12.258;2024-02-28T07:27:18;14.53;;;10.67;;
1679;SDS011;838;51.794;12.258;2024-02-28T07:29:46;14.13;;;10.10;;
1679;SDS011;838;51.794;12.258;2024-02-28T07:32:12;16.40;;;10.27;;
1679;SDS011;838;51.794;12.258;2024-02-28T07:34:38;14.13;;;9.90;;
1679;SDS011;838;51.794;12.258;2024-02-28T07:37:04;17.07;;;11.07;;
1679;SDS011;838;51.794;12.258;2024-02-28T07:39:30;20.20;;;11.60;;
1679;SDS011;838;51.794;12.258;2024-02-28T07:41:56;14.80;;;10.20;;
1679;SDS011;838;51.794;12.258;2024-02-28T07:44:21;13.43;;;10.20;;
1679;SDS011;838;51.794;12.258;2024-02-28T07:46:47;17.23;;;10.80;;
1679;SDS011;838;51.794;12.258;2024-02-28T07:49:13;15.27;;;10.50;;
1679;SDS011;838;51.794;12.258;2024-02-28T07:51:38;21.87;;;10.60;;
1679;SDS011;838;51.794;12.258;2024-02-28T07:54:05;16.60;;;10.30;;
1679;SDS011;838;51.794;12.258;2024-02-28T07:56:31;14.17;;;9.67;;
1679;SDS011;838;51.794;12.258;2024-02-28T07:58:57;14.57;;;9.40;;
1679;SDS011;838;51.794;12.258;2024-02-28T08:01:23;15.20;;;10.23;;
1679;SDS011;838;51.794;12.258;2024-02-28T08:03:49;14.87;;;10.33;;
1679;SDS011;838;51.794;12.258;2024-02-28T08:06:15;16.63;;;11.20;;
1679;SDS011;838;51.794;12.258;2024-02-28T08:08:43;16.10;;;10.60;;
1679;SDS011;838;51.794;12.258;2024-02-28T08:11:10;18.47;;;11.57;;
1679;SDS011;838;51.794;12.258;2024-02-28T08:13:36;15.80;;;11.43;;
1679;SDS011;838;51.794;12.258;2024-02-28T08:16:02;13.77;;;9.27;;
1679;SDS011;838;51.794;12.258;2024-02-28T08:18:28;17.60;;;10.30;;
1679;SDS011;838;51.794;12.258;2024-02-28T08:20:53;15.30;;;10.07;;
1679;SDS011;838;51.794;12.258;2024-02-28T08:23:22;13.50;;;10.30;;
1679;SDS011;838;51.794;12.258;2024-02-28T08:25:48;17.00;;;11.80;;
1679;SDS011;838;51.794;12.258;2024-02-28T08:28:14;15.70;;;11.40;;
1679;SDS011;838;51.794;12.258;2024-02-28T08:30:40;15.70;;;10.50;;
1679;SDS011;838;51.794;12.258;2024-02-28T08:33:06;16.20;;;11.77;;
1679;SDS011;838;51.794;12.258;2024-02-28T08:35:34;16.93;;;11.90;;
1679;SDS011;838;51.794;12.258;2024-02-28T08:38:00;17.47;;;12.30;;
1679;SDS011;838;51.794;12.258;2024-02-28T08:40:27;19.87;;;12.73;;
1679;SDS011;838;51.794;12.258;2024-02-28T08:42:52;14.97;;;10.17;;
1679;SDS011;838;51.794;12.258;2024-02-28T08:45:19;15.83;;;10.67;;
1679;SDS011;838;51.794;12.258;2024-02-28T08:47:45;16.27;;;11.37;;
1679;SDS011;838;51.794;12.258;2024-02-28T08:50:11;16.83;;;11.10;;
1679;SDS011;838;51.794;12.258;2024-02-28T08:52:37;15.97;;;11.50;;
1679;SDS011;838;51.794;12.258;2024-02-28T08:55:03;15.50;;;11.13;;
1679;SDS011;838;51.794;12.258;2024-02-28T08:57:29;17.73;;;11.50;;
1679;SDS011;838;51.794;12.258;2024-02-28T08:59:55;14.77;;;10.33;;
1679;SDS011;838;51.794;12.258;2024-02-28T09:02:21;15.43;;;10.43;;
1679;SDS011;838;51.794;12.258;2024-02-28T09:04:46;13.43;;;10.10;;
1679;SDS011;838;51.794;12.258;2024-02-28T09:07:17;14.43;;;10.83;;
1679;SDS011;838;51.794;12.258;2024-02-28T09:09:44;15.63;;;11.07;;
1679;SDS011;838;51.794;12.258;2024-02-28T09:12:10;14.27;;;10.97;;
1679;SDS011;838;51.794;12.258;2024-02-28T09:14:39;13.63;;;10.23;;
1679;SDS011;838;51.794;12.258;2024-02-28T09:17:05;14.40;;;11.00;;
1679;SDS011;838;51.794;12.258;2024-02-28T09:19:31;15.03;;;10.43;;
1679;SDS011;838;51.794;12.258;2024-02-28T09:21:57;14.23;;;11.63;;
1679;SDS011;838;51.794;12.258;2024-02-28T09:24:24;13.40;;;10.20;;
1679;SDS011;838;51.794;12.258;2024-02-28T09:26:50;16.70;;;12.17;;
1679;SDS011;838;51.794;12.258;2024-02-28T09:29:16;18.27;;;12.30;;
1679;SDS011;838;51.794;12.258;2024-02-28T09:31:41;20.80;;;12.80;;
1679;SDS011;838;51.794;12.258;2024-02-28T09:34:07;18.90;;;11.67;;
1679;SDS011;838;51.794;12.258;2024-02-28T09:36:43;15.00;;;9.83;;
1679;SDS011;838;51.794;12.258;2024-02-28T09:39:11;14.87;;;11.47;;
1679;SDS011;838;51.794;12.258;2024-02-28T09:41:38;15.63;;;11.60;;
1679;SDS011;838;51.794;12.258;2024-02-28T09:44:04;18.57;;;12.43;;
1679;SDS011;838;51.794;12.258;2024-02-28T09:46:32;15.30;;;11.00;;
1679;SDS011;838;51.794;12.258;2024-02-28T09:49:05;16.50;;;11.33;;
1679;SDS011;838;51.794;12.258;2024-02-28T09:51:34;20.67;;;11.60;;
1679;SDS011;838;51.794;12.258;2024-02-28T09:54:04;14.70;;;10.33;;
1679;SDS011;838;51.794;12.258;2024-02-28T09:56:33;13.03;;;9.93;;
1679;SDS011;838;51.794;12.258;2024-02-28T09:59:00;15.73;;;11.20;;
1679;SDS011;838;51.794;12.258;2024-02-28T10:01:28;14.67;;;11.07;;
1679;SDS011;838;51.794;12.258;2024-02-28T10:03:56;15.93;;;11.40;;
1679;SDS011;838;51.794;12.258;2024-02-28T10:06:25;15.40;;;11.00;;
1679;SDS011;838;51.794;12.258;2024-02-28T10:08:51;14.97;;;10.83;;
1679;SDS011;838;51.794;12.258;2024-02-28T10:11:21;14.40;;;11.50;;
1679;SDS011;838;51.794;12.258;2024-02-28T10:13:48;16.07;;;12.33;;
1679;SDS011;838;51.794;12.258;2024-02-28T10:16:14;15.50;;;11.60;;
1679;SDS011;838;51.794;12.258;2024-02-28T10:18:44;15.17;;;11.40;;
1679;SDS011;838;51.794;12.258;2024-02-28T10:21:10;20.60;;;12.30;;
1679;SDS011;838;51.794;12.258;2024-02-28T10:23:43;18.00;;;12.13;;
1679;SDS011;838;51.794;12.258;2024-02-28T10:26:10;15.73;;;11.10;;
1679;SDS011;838;51.794;12.258;2024-02-28T10:28:37;16.67;;;10.60;;
1679;SDS011;838;51.794;12.258;2024-02-28T10:31:04;16.43;;;11.20;;
1679;SDS011;838;51.794;12.258;2024-02-28T10:33:33;15.43;;;11.50;;
1679;SDS011;838;51.794;12.258;2024-02-28T10:36:01;14.87;;;11.10;;
1679;SDS011;838;51.794;12.258;2024-02-28T10:38:28;16.10;;;11.50;;
1679;SDS011;838;51.794;12.258;2024-02-28T10:40:55;17.00;;;11.37;;
1679;SDS011;838;51.794;12.258;2024-02-28T10:43:22;18.57;;;12.10;;
1679;SDS011;838;51.794;12.258;2024-02-28T10:45:50;18.40;;;12.67;;
1679;SDS011;838;51.794;12.258;2024-02-28T10:48:16;16.37;;;11.23;;
1679;SDS011;838;51.794;12.258;2024-02-28T10:50:43;12.33;;;9.50;;
1679;SDS011;838;51.794;12.258;2024-02-28T10:53:14;15.50;;;10.37;;
1679;SDS011;838;51.794;12.258;2024-02-28T10:55:41;13.27;;;9.17;;
1679;SDS011;838;51.794;12.258;2024-02-28T10:58:09;13.23;;;10.33;;
1679;SDS011;838;51.794;12.258;2024-02-28T11:00:39;12.00;;;9.23;;
1679;SDS011;838;51.794;12.258;2024-02-28T11:03:15;12.63;;;9.77;;
1679;SDS011;838;51.794;12.258;2024-02-28T11:05:43;11.10;;;8.73;;
1679;SDS011;838;51.794;12.258;2024-02-28T11:08:19;13.67;;;9.30;;
1679;SDS011;838;51.794;12.258;2024-02-28T11:10:59;11.47;;;8.67;;
1679;SDS011;838;51.794;12.258;2024-02-28T11:13:29;12.40;;;8.93;;
1679;SDS011;838;51.794;12.258;2024-02-28T11:15:56;11.00;;;8.90;;
1679;SDS011;838;51.794;12.258;2024-02-28T11:18:35;11.97;;;9.50;;
1679;SDS011;838;51.794;12.258;2024-02-28T11:21:01;11.93;;;8.77;;
1679;SDS011;838;51.794;12.258;2024-02-28T11:23:35;13.73;;;9.67;;
1679;SDS011;838;51.794;12.258;2024-02-28T11:26:03;14.93;;;11.53;;
1679;SDS011;838;51.794;12.258;2024-02-28T11:28:28;14.53;;;10.70;;
1679;SDS011;838;51.794;12.258;2024-02-28T11:30:54;14.30;;;10.43;;
1679;SDS011;838;51.794;12.258;2024-02-28T11:33:20;12.87;;;10.33;;
1679;SDS011;838;51.794;12.258;2024-02-28T11:35:56;14.27;;;10.13;;
1679;SDS011;838;51.794;12.258;2024-02-28T11:38:24;13.40;;;9.73;;
1679;SDS011;838;51.794;12.258;2024-02-28T11:40:53;12.50;;;10.23;;
1679;SDS011;838;51.794;12.258;2024-02-28T11:43:20;13.83;;;10.70;;
1679;SDS011;838;51.794;12.258;2024-02-28T11:45:46;16.50;;;9.63;;
1679;SDS011;838;51.794;12.258;2024-02-28T11:48:14;12.97;;;10.03;;
1679;SDS011;838;51.794;12.258;2024-02-28T11:50:41;15.43;;;10.40;;
1679;SDS011;838;51.794;12.258;2024-02-28T11:53:07;13.83;;;9.63;;
1679;SDS011;838;51.794;12.258;2024-02-28T11:55:33;12.07;;;9.50;;
1679;SDS011;838;51.794;12.258;2024-02-28T11:57:59;15.43;;;11.07;;
1679;SDS011;838;51.794;12.258;2024-02-28T12:00:25;14.00;;;10.10;;
1679;SDS011;838;51.794;12.258;2024-02-28T12:02:51;14.70;;;11.20;;
1679;SDS011;838;51.794;12.258;2024-02-28T12:05:19;15.07;;;10.73;;
1679;SDS011;838;51.794;12.258;2024-02-28T12:07:45;15.20;;;10.70;;
1679;SDS011;838;51.794;12.258;2024-02-28T12:10:11;14.60;;;11.43;;
1679;SDS011;838;51.794;12.258;2024-02-28T12:12:38;14.90;;;11.60;;
1679;SDS011;838;51.794;12.258;2024-02-28T12:15:04;16.93;;;11.03;;
1679;SDS011;838;51.794;12.258;2024-02-28T12:17:31;15.13;;;11.37;;
1679;SDS011;838;51.794;12.258;2024-02-28T12:20:00;15.77;;;10.77;;
1679;SDS011;838;51.794;12.258;2024-02-28T12:22:26;14.70;;;10.87;;
1679;SDS011;838;51.794;12.258;2024-02-28T12:24:52;16.30;;;11.70;;
1679;SDS011;838;51.794;12.258;2024-02-28T12:27:18;15.50;;;11.90;;
1679;SDS011;838;51.794;12.258;2024-02-28T12:29:44;18.13;;;12.90;;
1679;SDS011;838;51.794;12.258;2024-02-28T12:32:09;15.40;;;12.50;;
1679;SDS011;838;51.794;12.258;2024-02-28T12:34:36;16.03;;;12.23;;
1679;SDS011;838;51.794;12.258;2024-02-28T12:37:02;14.37;;;11.57;;
1679;SDS011;838;51.794;12.258;2024-02-28T12:39:30;17.57;;;13.47;;
1679;SDS011;838;51.794;12.258;2024-02-28T12:41:59;18.17;;;13.40;;
1679;SDS011;838;51.794;12.258;2024-02-28T12:44:25;21.37;;;14.57;;
1679;SDS011;838;51.794;12.258;2024-02-28T12:46:51;18.83;;;13.80;;
1679;SDS011;838;51.794;12.258;2024-02-28T12:49:17;16.90;;;13.37;;
1679;SDS011;838;51.794;12.258;2024-02-28T12:51:43;19.47;;;12.47;;
1679;SDS011;838;51.794;12.258;2024-02-28T12:54:11;18.80;;;13.23;;
1679;SDS011;838;51.794;12.258;2024-02-28T12:56:40;17.80;;;14.50;;
1679;SDS011;838;51.794;12.258;2024-02-28T12:59:09;17.80;;;12.60;;
1679;SDS011;838;51.794;12.258;2024-02-28T13:01:35;20.40;;;13.63;;
1679;SDS011;838;51.794;12.258;2024-02-28T13:04:01;21.70;;;14.17;;
1679;SDS011;838;51.794;12.258;2024-02-28T13:06:27;21.83;;;14.10;;
1679;SDS011;838;51.794;12.258;2024-02-28T13:08:53;22.50;;;14.97;;
1679;SDS011;838;51.794;12.258;2024-02-28T13:11:19;22.10;;;15.33;;
1679;SDS011;838;51.794;12.258;2024-02-28T13:13:46;19.93;;;14.73;;
1679;SDS011;838;51.794;12.258;2024-02-28T13:16:12;25.23;;;16.27;;
1679;SDS011;838;51.794;12.258;2024-02-28T13:18:38;21.70;;;15.33;;
1679;SDS011;838;51.794;12.258;2024-02-28T13:21:04;21.43;;;15.13;;
1679;SDS011;838;51.794;12.258;2024-02-28T13:23:30;19.07;;;13.50;;
1679;SDS011;838;51.794;12.258;2024-02-28T13:25:59;20.03;;;14.47;;
1679;SDS011;838;51.794;12.258;2024-02-28T13:28:26;24.83;;;16.63;;
1679;SDS011;838;51.794;12.258;2024-02-28T13:30:58;21.90;;;16.13;;
1679;SDS011;838;51.794;12.258;2024-02-28T13:33:25;22.20;;;16.80;;
1679;SDS011;838;51.794;12.258;2024-02-28T13:35:51;20.80;;;16.67;;
1679;SDS011;838;51.794;12.258;2024-02-28T13:38:18;20.97;;;15.07;;
1679;SDS011;838;51.794;12.258;2024-02-28T13:40:45;22.70;;;16.37;;
1679;SDS011;838;51.794;12.258;2024-02-28T13:43:11;21.90;;;17.00;;
1679;SDS011;838;51.794;12.258;2024-02-28T13:45:46;23.40;;;17.00;;
1679;SDS011;838;51.794;12.258;2024-02-28T13:48:16;20.63;;;14.07;;
1679;SDS011;838;51.794;12.258;2024-02-28T13:50:52;22.63;;;15.60;;
1679;SDS011;838;51.794;12.258;2024-02-28T13:53:18;18.43;;;13.97;;
1679;SDS011;838;51.794;12.258;2024-02-28T13:55:44;20.47;;;14.80;;
1679;SDS011;838;51.794;12.258;2024-02-28T13:58:11;22.03;;;14.80;;
1679;SDS011;838;51.794;12.258;2024-02-28T14:00:37;20.27;;;14.17;;
1679;SDS011;838;51.794;12.258;2024-02-28T14:03:03;18.57;;;13.80;;
1679;SDS011;838;51.794;12.258;2024-02-28T14:05:31;22.50;;;14.77;;
1679;SDS011;838;51.794;12.258;2024-02-28T14:07:57;18.90;;;13.20;;
1679;SDS011;838;51.794;12.258;2024-02-28T14:10:23;20.63;;;14.80;;
1679;SDS011;838;51.794;12.258;2024-02-28T14:12:49;19.20;;;12.90;;
1679;SDS011;838;51.794;12.258;2024-02-28T14:15:18;18.93;;;14.03;;
1679;SDS011;838;51.794;12.258;2024-02-28T14:17:44;19.17;;;13.30;;
1679;SDS011;838;51.794;12.258;2024-02-28T14:20:11;19.97;;;14.40;;
1679;SDS011;838;51.794;12.258;2024-02-28T14:22:37;18.70;;;13.53;;
1679;SDS011;838;51.794;12.258;2024-02-28T14:25:07;21.73;;;14.10;;
1679;SDS011;838;51.794;12.258;2024-02-28T14:27:51;19.43;;;13.20;;
1679;SDS011;838;51.794;12.258;2024-02-28T14:30:16;19.20;;;13.87;;
1679;SDS011;838;51.794;12.258;2024-02-28T14:32:42;20.70;;;14.70;;
1679;SDS011;838;51.794;12.258;2024-02-28T14:35:09;20.50;;;14.37;;
1679;SDS011;838;51.794;12.258;2024-02-28T14:37:36;18.97;;;13.60;;
1679;SDS011;838;51.794;12.258;2024-02-28T14:40:04;18.07;;;12.93;;
1679;SDS011;838;51.794;12.258;2024-02-28T14:42:35;19.47;;;12.20;;
1679;SDS011;838;51.794;12.258;2024-02-28T14:45:01;18.53;;;14.00;;